Time;durP1;ratioP1;P1;durP2;ratioP2;P2;SDS_P1;SDS_P2;PMS_P1;PMS_P2;Temp;Humidity;BMP_temperature;BMP_pressure;BME280_temperature;BME280_humidity;BME280_pressure;Samples;Min_cycle;Max_cycle;Signal;HPM_P1;HPM_P2
2022/10/24 00:00:46;;;;;;;7.75;7.05;;;;;;;;;;5005636;28;20196;-76
2022/10/24 00:03:13;;;;;;;6.60;6.20;;;;;;;;;;5003681;28;20036;-76
2022/10/24 00:05:45;;;;;;;7.03;6.40;;;;;;;;;;5001833;28;20518;-76
2022/10/24 00:08:11;;;;;;;10.23;7.28;;;;;;;;;;5005820;28;20036;-76
2022/10/24 00:10:42;;;;;;;7.13;6.53;;;;;;;;;;5006396;28;20045;-76
2022/10/24 00:13:08;;;;;;;8.85;6.40;;;;;;;;;;5004919;28;20094;-77
2022/10/24 00:15:34;;;;;;;7.43;6.72;;;;;;;;;;5003937;28;20070;-76
2022/10/24 00:17:59;;;;;;;10.02;6.72;;;;;;;;;;5005988;28;20038;-76
2022/10/24 00:20:25;;;;;;;8.10;6.57;;;;;;;;;;5002996;28;20037;-76
2022/10/24 00:22:51;;;;;;;7.45;6.70;;;;;;;;;;5002082;28;20489;-75
2022/10/24 00:25:16;;;;;;;7.55;6.78;;;;;;;;;;5004186;28;20039;-76
2022/10/24 00:27:42;;;;;;;7.38;6.88;;;;;;;;;;5006187;28;20026;-76
2022/10/24 00:30:12;;;;;;;8.05;7.25;;;;;;;;;;5004517;28;20041;-76
2022/10/24 00:32:38;;;;;;;7.38;6.88;;;;;;;;;;5002694;28;20072;-76
2022/10/24 00:35:04;;;;;;;7.53;6.47;;;;;;;;;;5004592;28;20091;-76
2022/10/24 00:37:29;;;;;;;7.13;6.53;;;;;;;;;;5007084;28;20038;-76
2022/10/24 00:39:55;;;;;;;11.13;7.15;;;;;;;;;;5010777;28;20033;-76
2022/10/24 00:42:20;;;;;;;9.00;7.30;;;;;;;;;;5007487;28;20037;-76
2022/10/24 00:44:48;;;;;;;8.25;6.90;;;;;;;;;;5008617;28;20099;-76
2022/10/24 00:47:23;;;;;;;12.93;6.90;;;;;;;;;;5008504;28;20117;-76
2022/10/24 00:49:53;;;;;;;7.68;7.18;;;;;;;;;;5010476;28;20034;-76
2022/10/24 00:52:22;;;;;;;7.40;6.80;;;;;;;;;;5007316;28;20078;-76
2022/10/24 00:54:49;;;;;;;8.30;6.68;;;;;;;;;;5010235;28;20042;-76
2022/10/24 00:57:19;;;;;;;7.95;6.95;;;;;;;;;;5009485;28;20378;-76
2022/10/24 00:59:48;;;;;;;10.82;6.78;;;;;;;;;;5008725;28;20034;-76
2022/10/24 01:02:14;;;;;;;7.88;6.88;;;;;;;;;;5007711;28;20444;-76
2022/10/24 01:04:40;;;;;;;7.60;6.80;;;;;;;;;;5009458;28;20064;-76
2022/10/24 01:07:46;;;;;;;12.57;6.57;;;;;;;;;;5010032;28;20026;-77
2022/10/24 01:10:23;;;;;;;13.38;6.65;;;;;;;;;;4988943;28;20045;-76
2022/10/24 01:13:08;;;;;;;7.38;6.70;;;;;;;;;;5009353;28;20060;-76
2022/10/24 01:15:33;;;;;;;8.48;7.00;;;;;;;;;;5005520;28;20045;-76
2022/10/24 01:18:14;;;;;;;7.82;6.53;;;;;;;;;;5006033;28;20520;-76
2022/10/24 01:20:39;;;;;;;10.27;6.93;;;;;;;;;;5006004;28;20038;-76
2022/10/24 01:23:25;;;;;;;7.00;6.40;;;;;;;;;;5009511;28;20049;-76
2022/10/24 01:26:20;;;;;;;8.75;6.72;;;;;;;;;;4993504;28;20050;-76
2022/10/24 01:28:56;;;;;;;10.23;7.00;;;;;;;;;;5006906;28;20030;-76
2022/10/24 01:31:31;;;;;;;9.90;6.60;;;;;;;;;;5007296;28;20034;-76
2022/10/24 01:34:13;;;;;;;9.07;6.75;;;;;;;;;;5006995;28;20072;-76
2022/10/24 01:36:46;;;;;;;13.95;7.00;;;;;;;;;;5007046;28;20030;-76
2022/10/24 01:39:15;;;;;;;8.40;6.50;;;;;;;;;;5010097;28;20053;-76
2022/10/24 01:41:42;;;;;;;;;;;;;;;;;;5005771;28;20041;-76
2022/10/24 01:44:15;;;;;;;10.75;7.10;;;;;;;;;;5006450;28;19925;-76
2022/10/24 01:46:47;;;;;;;7.88;7.10;;;;;;;;;;5009572;28;20040;-76
2022/10/24 01:49:16;;;;;;;8.88;7.38;;;;;;;;;;5007465;28;20041;-76
2022/10/24 01:51:44;;;;;;;8.27;6.93;;;;;;;;;;5006572;28;20026;-75
2022/10/24 01:54:12;;;;;;;8.07;7.28;;;;;;;;;;5006002;28;20413;-76
2022/10/24 01:56:38;;;;;;;7.50;6.78;;;;;;;;;;5005407;28;20026;-75
2022/10/24 01:59:04;;;;;;;7.10;6.40;;;;;;;;;;5004667;28;20038;-76
2022/10/24 02:01:31;;;;;;;8.18;6.80;;;;;;;;;;5006577;28;20037;-74
2022/10/24 02:04:03;;;;;;;7.20;6.60;;;;;;;;;;5009374;28;20445;-76
2022/10/24 02:06:34;;;;;;;9.63;6.95;;;;;;;;;;5008345;28;20046;-75
2022/10/24 02:09:09;;;;;;;7.65;6.95;;;;;;;;;;4997410;28;20025;-76
2022/10/24 02:11:37;;;;;;;8.60;7.10;;;;;;;;;;5009093;28;20577;-76
2022/10/24 02:14:13;;;;;;;8.13;6.70;;;;;;;;;;5007234;28;20053;-76
2022/10/24 02:16:39;;;;;;;8.05;6.78;;;;;;;;;;5003556;28;20030;-76
2022/10/24 02:19:05;;;;;;;7.85;6.55;;;;;;;;;;5005866;28;20041;-76
2022/10/24 02:21:50;;;;;;;7.30;6.50;;;;;;;;;;5008531;28;20041;-75
2022/10/24 02:24:56;;;;;;;7.13;6.53;;;;;;;;;;5005262;28;20074;-76
2022/10/24 02:27:31;;;;;;;9.07;6.60;;;;;;;;;;4966695;28;20114;-76
2022/10/24 02:30:14;;;;;;;8.10;7.35;;;;;;;;;;4965267;28;20050;-76
2022/10/24 02:32:50;;;;;;;7.95;7.00;;;;;;;;;;4965655;28;20039;-75
2022/10/24 02:35:18;;;;;;;8.55;7.38;;;;;;;;;;4964780;28;20141;-75
2022/10/24 02:37:49;;;;;;;8.80;7.90;;;;;;;;;;4965045;28;20117;-76
2022/10/24 02:40:18;;;;;;;9.82;7.70;;;;;;;;;;4965918;28;20705;-76
2022/10/24 02:42:46;;;;;;;8.52;7.70;;;;;;;;;;4966279;28;20061;-76
2022/10/24 02:45:14;;;;;;;10.57;8.37;;;;;;;;;;4962318;28;20629;-76
2022/10/24 02:47:42;;;;;;;8.83;7.87;;;;;;;;;;4965654;28;20050;-75
2022/10/24 02:50:08;;;;;;;9.02;8.13;;;;;;;;;;4966910;28;20306;-76
2022/10/24 02:52:36;;;;;;;9.88;7.45;;;;;;;;;;4965689;28;20039;-76
2022/10/24 02:55:01;;;;;;;9.32;8.20;;;;;;;;;;4964681;28;20046;-76
2022/10/24 02:57:27;;;;;;;8.30;7.50;;;;;;;;;;4965313;28;20027;-75
2022/10/24 02:59:53;;;;;;;8.55;7.72;;;;;;;;;;4966416;28;20277;-76
2022/10/24 03:02:18;;;;;;;8.55;7.43;;;;;;;;;;5001101;28;20117;-76
2022/10/24 03:04:44;;;;;;;11.55;7.65;;;;;;;;;;5005151;28;20073;-76
2022/10/24 03:07:10;;;;;;;13.82;7.47;;;;;;;;;;5004236;28;20041;-76
2022/10/24 03:09:35;;;;;;;10.65;7.72;;;;;;;;;;5002137;28;20527;-76
2022/10/24 03:12:02;;;;;;;8.20;7.50;;;;;;;;;;5005341;28;20540;-76
2022/10/24 03:14:27;;;;;;;10.93;7.53;;;;;;;;;;5004842;28;20643;-76
2022/10/24 03:16:53;;;;;;;11.45;8.10;;;;;;;;;;5006352;28;20044;-76
2022/10/24 03:19:18;;;;;;;8.82;8.02;;;;;;;;;;5006382;28;20109;-76
2022/10/24 03:21:44;;;;;;;8.90;7.95;;;;;;;;;;5006625;28;20116;-76
2022/10/24 03:24:10;;;;;;;13.40;8.27;;;;;;;;;;5003847;28;20034;-76
2022/10/24 03:26:35;;;;;;;9.52;7.75;;;;;;;;;;5004559;28;20040;-76
2022/10/24 03:29:01;;;;;;;10.30;8.68;;;;;;;;;;5006005;28;20034;-76
2022/10/24 03:31:26;;;;;;;11.05;8.07;;;;;;;;;;5003631;28;20368;-76
2022/10/24 03:33:52;;;;;;;14.65;9.43;;;;;;;;;;5005542;28;20387;-76
2022/10/24 03:36:18;;;;;;;9.68;8.40;;;;;;;;;;5005382;28;20112;-76
2022/10/24 03:38:43;;;;;;;10.57;8.63;;;;;;;;;;5005475;28;20034;-76
2022/10/24 03:41:09;;;;;;;11.63;10.43;;;;;;;;;;5006105;28;20080;-76
2022/10/24 03:43:35;;;;;;;13.43;8.35;;;;;;;;;;5001280;28;20054;-77
2022/10/24 03:46:00;;;;;;;10.63;7.80;;;;;;;;;;5006146;28;20041;-76
2022/10/24 03:48:26;;;;;;;11.23;7.55;;;;;;;;;;5007041;28;20036;-76
2022/10/24 03:50:52;;;;;;;13.05;8.15;;;;;;;;;;5005561;28;20026;-76
2022/10/24 03:53:17;;;;;;;9.05;7.50;;;;;;;;;;5002465;28;20437;-77
2022/10/24 03:55:43;;;;;;;12.77;8.45;;;;;;;;;;5006880;28;20034;-77
2022/10/24 03:58:08;;;;;;;9.45;8.50;;;;;;;;;;5006001;28;20026;-76
2022/10/24 04:00:38;;;;;;;16.85;9.07;;;;;;;;;;5000629;28;20544;-77
2022/10/24 04:03:05;;;;;;;9.65;8.80;;;;;;;;;;5005722;28;20080;-76
2022/10/24 04:05:31;;;;;;;9.38;8.40;;;;;;;;;;5006934;28;20144;-76
2022/10/24 04:07:56;;;;;;;10.98;8.27;;;;;;;;;;5000863;28;20691;-76
2022/10/24 04:10:22;;;;;;;11.05;8.63;;;;;;;;;;5006619;28;20038;-76
2022/10/24 04:12:48;;;;;;;8.60;7.80;;;;;;;;;;5005447;28;20029;-76
2022/10/24 04:15:13;;;;;;;9.27;8.48;;;;;;;;;;5005250;28;20076;-76
2022/10/24 04:17:39;;;;;;;9.40;8.48;;;;;;;;;;5000123;28;20680;-77
2022/10/24 04:20:05;;;;;;;13.38;8.57;;;;;;;;;;5004253;28;20037;-77
2022/10/24 04:22:30;;;;;;;8.60;7.82;;;;;;;;;;5005235;28;20398;-77
2022/10/24 04:24:56;;;;;;;9.50;8.30;;;;;;;;;;5002431;28;20486;-77
2022/10/24 04:27:21;;;;;;;11.88;8.32;;;;;;;;;;5005665;28;20034;-76
2022/10/24 04:29:47;;;;;;;8.60;8.00;;;;;;;;;;5005133;28;20025;-77
2022/10/24 04:32:12;;;;;;;8.63;8.10;;;;;;;;;;5004920;28;20538;-76
2022/10/24 04:34:38;;;;;;;9.70;8.20;;;;;;;;;;5003540;28;20045;-77
2022/10/24 04:37:04;;;;;;;13.23;8.52;;;;;;;;;;5004050;28;20121;-76
2022/10/24 04:39:30;;;;;;;10.32;8.63;;;;;;;;;;5005609;28;20038;-76
2022/10/24 04:41:55;;;;;;;16.23;8.57;;;;;;;;;;5004924;28;20394;-76
2022/10/24 04:44:21;;;;;;;9.43;8.63;;;;;;;;;;5003585;28;20112;-77
2022/10/24 04:46:46;;;;;;;11.60;8.60;;;;;;;;;;5005964;28;20116;-77
2022/10/24 04:49:12;;;;;;;9.00;7.95;;;;;;;;;;5007058;28;20069;-77
2022/10/24 04:51:38;;;;;;;11.55;8.18;;;;;;;;;;5004090;28;20030;-76
2022/10/24 04:54:04;;;;;;;8.88;8.10;;;;;;;;;;5003807;28;20103;-76
2022/10/24 04:56:30;;;;;;;11.63;8.80;;;;;;;;;;5008609;28;20041;-76
2022/10/24 04:58:55;;;;;;;9.85;8.90;;;;;;;;;;5008839;28;20038;-77
2022/10/24 05:01:21;;;;;;;13.70;9.13;;;;;;;;;;5004423;28;20239;-75
2022/10/24 05:03:46;;;;;;;9.93;8.90;;;;;;;;;;5005683;28;20037;-76
2022/10/24 05:06:13;;;;;;;9.48;8.68;;;;;;;;;;5002680;28;20087;-76
2022/10/24 05:08:38;;;;;;;12.10;8.20;;;;;;;;;;5005651;28;20065;-76
2022/10/24 05:11:04;;;;;;;9.32;8.48;;;;;;;;;;5003253;28;20637;-76
2022/10/24 05:13:29;;;;;;;9.57;8.70;;;;;;;;;;5000879;28;20045;-76
2022/10/24 05:15:55;;;;;;;11.65;8.50;;;;;;;;;;5004562;28;20168;-76
2022/10/24 05:18:20;;;;;;;11.30;8.50;;;;;;;;;;4993139;28;20034;-77
2022/10/24 05:20:46;;;;;;;9.43;8.48;;;;;;;;;;5003411;28;20083;-76
2022/10/24 05:23:12;;;;;;;10.75;8.95;;;;;;;;;;5006070;28;20128;-76
2022/10/24 05:25:37;;;;;;;11.15;8.90;;;;;;;;;;5005088;28;20428;-76
2022/10/24 05:28:03;;;;;;;12.20;9.50;;;;;;;;;;5005548;28;20026;-77
2022/10/24 05:30:29;;;;;;;11.35;9.05;;;;;;;;;;5007756;28;20125;-78
2022/10/24 05:32:54;;;;;;;9.13;8.35;;;;;;;;;;5009574;28;20540;-77
2022/10/24 05:35:20;;;;;;;13.45;8.75;;;;;;;;;;5007995;28;20038;-77
2022/10/24 05:37:45;;;;;;;10.45;8.52;;;;;;;;;;5008756;28;20056;-78
2022/10/24 05:40:12;;;;;;;9.38;8.52;;;;;;;;;;5009215;28;20052;-74
2022/10/24 05:42:38;;;;;;;9.25;8.07;;;;;;;;;;5008088;28;20045;-74
2022/10/24 05:45:05;;;;;;;12.60;8.85;;;;;;;;;;5008047;28;20049;-74
2022/10/24 05:47:31;;;;;;;8.63;7.82;;;;;;;;;;5010093;28;20030;-74
2022/10/24 05:49:56;;;;;;;9.32;8.07;;;;;;;;;;5009897;28;20034;-74
2022/10/24 05:52:22;;;;;;;13.07;8.43;;;;;;;;;;5005899;28;20044;-74
2022/10/24 05:54:48;;;;;;;8.90;8.00;;;;;;;;;;5009220;28;20041;-74
2022/10/24 05:57:13;;;;;;;9.65;8.13;;;;;;;;;;5009812;28;20036;-73
2022/10/24 05:59:39;;;;;;;9.07;7.93;;;;;;;;;;5007995;28;20510;-74
2022/10/24 06:02:04;;;;;;;8.20;7.50;;;;;;;;;;5005585;28;20060;-75
2022/10/24 06:04:30;;;;;;;11.23;8.48;;;;;;;;;;5009631;28;20069;-74
2022/10/24 06:06:55;;;;;;;14.68;9.45;;;;;;;;;;5008136;28;20501;-74
2022/10/24 06:09:21;;;;;;;10.23;8.27;;;;;;;;;;5005367;28;20037;-75
2022/10/24 06:11:47;;;;;;;10.65;7.68;;;;;;;;;;5006917;28;20038;-74
2022/10/24 06:14:12;;;;;;;18.60;11.90;;;;;;;;;;5009333;28;20041;-74
2022/10/24 06:16:38;;;;;;;16.92;10.75;;;;;;;;;;5009469;28;20293;-73
2022/10/24 06:19:03;;;;;;;14.05;8.50;;;;;;;;;;5003816;28;20402;-74
2022/10/24 06:21:29;;;;;;;9.23;8.27;;;;;;;;;;5007933;28;20053;-74
2022/10/24 06:23:55;;;;;;;10.45;8.30;;;;;;;;;;5009173;28;20037;-74
2022/10/24 06:26:20;;;;;;;9.68;8.18;;;;;;;;;;5004069;28;20479;-74
2022/10/24 06:28:46;;;;;;;8.77;7.97;;;;;;;;;;5008672;28;20042;-75
2022/10/24 06:31:12;;;;;;;13.30;7.88;;;;;;;;;;5008930;28;20099;-74
2022/10/24 06:33:39;;;;;;;11.52;8.18;;;;;;;;;;5006306;28;20053;-74
2022/10/24 06:36:08;;;;;;;9.35;8.32;;;;;;;;;;5008949;28;20038;-74
2022/10/24 06:38:34;;;;;;;;;;;;;;;;;;5010066;28;20065;-74
2022/10/24 06:41:05;;;;;;;8.45;7.70;;;;;;;;;;5008284;28;19937;-73
2022/10/24 06:43:30;;;;;;;8.45;7.72;;;;;;;;;;5004278;28;20046;-74
2022/10/24 06:45:56;;;;;;;9.00;8.23;;;;;;;;;;5008483;28;20025;-74
2022/10/24 06:48:21;;;;;;;13.35;8.13;;;;;;;;;;5009156;28;20065;-73
2022/10/24 06:50:47;;;;;;;9.32;8.43;;;;;;;;;;5009520;28;20040;-74
2022/10/24 06:53:12;;;;;;;10.10;7.93;;;;;;;;;;5007438;28;20049;-74
2022/10/24 06:55:39;;;;;;;13.15;8.20;;;;;;;;;;5010093;28;20033;-73
2022/10/24 06:58:05;;;;;;;10.60;8.13;;;;;;;;;;5009833;28;20030;-74
2022/10/24 07:00:34;;;;;;;9.35;7.93;;;;;;;;;;5006191;28;20038;-75
2022/10/24 07:03:00;;;;;;;10.52;8.70;;;;;;;;;;5009411;28;20034;-74
2022/10/24 07:05:25;;;;;;;9.63;8.43;;;;;;;;;;5007845;28;20504;-74
2022/10/24 07:07:51;;;;;;;9.20;8.40;;;;;;;;;;5010365;28;20421;-74
2022/10/24 07:10:17;;;;;;;9.98;8.73;;;;;;;;;;5006000;28;20037;-73
2022/10/24 07:12:42;;;;;;;10.68;8.85;;;;;;;;;;5009193;28;20034;-73
2022/10/24 07:15:08;;;;;;;9.95;8.93;;;;;;;;;;5009284;28;20041;-74
2022/10/24 07:17:38;;;;;;;12.27;9.27;;;;;;;;;;5011001;28;20444;-74
2022/10/24 07:20:04;;;;;;;12.32;9.13;;;;;;;;;;5008583;28;20644;-74
2022/10/24 07:22:30;;;;;;;9.93;7.85;;;;;;;;;;5010425;28;20069;-74
2022/10/24 07:24:55;;;;;;;12.43;8.25;;;;;;;;;;5010388;28;20458;-74
2022/10/24 07:27:22;;;;;;;10.73;8.77;;;;;;;;;;5003453;28;20025;-74
2022/10/24 07:29:48;;;;;;;10.45;8.82;;;;;;;;;;5002982;28;20046;-73
2022/10/24 07:32:13;;;;;;;12.80;8.80;;;;;;;;;;5002475;28;20036;-73
2022/10/24 07:34:39;;;;;;;9.95;8.55;;;;;;;;;;5004263;28;20393;-74
2022/10/24 07:37:05;;;;;;;9.55;8.65;;;;;;;;;;5005731;28;20112;-73
2022/10/24 07:39:31;;;;;;;11.15;9.52;;;;;;;;;;5003912;28;20041;-74
2022/10/24 07:41:57;;;;;;;15.80;9.98;;;;;;;;;;5006420;28;20117;-73
2022/10/24 07:44:22;;;;;;;11.85;9.82;;;;;;;;;;4999652;28;20037;-74
2022/10/24 07:46:48;;;;;;;11.57;10.38;;;;;;;;;;5003049;28;20409;-73
2022/10/24 07:49:14;;;;;;;10.27;8.98;;;;;;;;;;5004873;28;20034;-72
2022/10/24 07:51:41;;;;;;;10.95;9.07;;;;;;;;;;5004495;28;20206;-74
2022/10/24 07:54:06;;;;;;;9.57;8.63;;;;;;;;;;5002808;28;21724;-74
2022/10/24 07:56:32;;;;;;;9.50;8.50;;;;;;;;;;5003768;28;20110;-72
2022/10/24 07:58:59;;;;;;;9.05;7.72;;;;;;;;;;5002797;28;20040;-74
2022/10/24 08:01:26;;;;;;;10.85;8.38;;;;;;;;;;5001326;28;20042;-74
2022/10/24 08:03:52;;;;;;;9.52;8.35;;;;;;;;;;5000687;28;20030;-73
2022/10/24 08:06:20;;;;;;;9.93;8.45;;;;;;;;;;5005654;28;20492;-73
2022/10/24 08:08:46;;;;;;;9.82;8.80;;;;;;;;;;5002380;28;20037;-73
2022/10/24 08:11:15;;;;;;;9.70;8.10;;;;;;;;;;5002004;28;20096;-74
2022/10/24 08:13:40;;;;;;;8.40;7.68;;;;;;;;;;4999643;28;20554;-73
2022/10/24 08:16:08;;;;;;;10.32;8.27;;;;;;;;;;5003740;28;20046;-75
2022/10/24 08:18:35;;;;;;;8.75;7.78;;;;;;;;;;5003745;28;20132;-74
2022/10/24 08:21:04;;;;;;;10.75;8.63;;;;;;;;;;5002476;28;20104;-76
2022/10/24 08:23:31;;;;;;;11.40;8.80;;;;;;;;;;5000295;28;20494;-76
2022/10/24 08:25:57;;;;;;;12.70;8.68;;;;;;;;;;5003839;28;20521;-76
2022/10/24 08:28:23;;;;;;;8.80;8.27;;;;;;;;;;5004405;28;20022;-75
2022/10/24 08:31:00;;;;;;;11.00;8.55;;;;;;;;;;5000598;28;20037;-75
2022/10/24 08:33:26;;;;;;;10.68;8.85;;;;;;;;;;5002749;28;20060;-75
2022/10/24 08:35:55;;;;;;;10.15;9.13;;;;;;;;;;5004486;28;20474;-74
2022/10/24 08:38:21;;;;;;;13.45;9.00;;;;;;;;;;5003620;28;20104;-74
2022/10/24 08:40:50;;;;;;;14.90;8.93;;;;;;;;;;5000305;28;20076;-74
2022/10/24 08:43:17;;;;;;;13.00;8.75;;;;;;;;;;5002971;28;20068;-75
2022/10/24 08:46:09;;;;;;;9.73;8.75;;;;;;;;;;5003507;28;20038;-75
2022/10/24 08:48:47;;;;;;;9.63;8.88;;;;;;;;;;4995913;28;20034;-75
2022/10/24 08:51:33;;;;;;;9.90;9.00;;;;;;;;;;4989488;28;20061;-74
2022/10/24 08:54:00;;;;;;;12.77;8.95;;;;;;;;;;4999071;28;20048;-75
2022/10/24 08:56:30;;;;;;;10.25;8.60;;;;;;;;;;5001343;28;20746;-74
2022/10/24 08:58:58;;;;;;;10.75;9.02;;;;;;;;;;5004275;28;20034;-74
2022/10/24 09:01:37;;;;;;;11.15;9.30;;;;;;;;;;5002173;28;20073;-74
2022/10/24 09:04:05;;;;;;;;;;;;;;;;;;5007203;28;20070;-74
2022/10/24 09:06:31;;;;;;;9.40;8.45;;;;;;;;;;5006197;28;19918;-75
2022/10/24 09:08:58;;;;;;;10.48;9.00;;;;;;;;;;5006789;28;20370;-75
2022/10/24 09:11:35;;;;;;;14.10;9.45;;;;;;;;;;5001455;28;20472;-75
2022/10/24 09:14:10;;;;;;;10.45;9.07;;;;;;;;;;5005241;28;20494;-75
2022/10/24 09:16:37;;;;;;;10.30;8.90;;;;;;;;;;5003829;28;20038;-75
2022/10/24 09:19:03;;;;;;;9.95;8.93;;;;;;;;;;5004824;28;20926;-75
2022/10/24 09:21:28;;;;;;;9.50;8.45;;;;;;;;;;5005400;28;20478;-75
2022/10/24 09:23:54;;;;;;;11.30;8.88;;;;;;;;;;5005829;28;20041;-75
2022/10/24 09:26:28;;;;;;;9.60;8.65;;;;;;;;;;5004415;28;20038;-74
2022/10/24 09:28:55;;;;;;;9.63;8.70;;;;;;;;;;5003417;28;20038;-75
2022/10/24 09:31:23;;;;;;;11.32;8.85;;;;;;;;;;5008029;28;20304;-75
2022/10/24 09:33:50;;;;;;;10.40;7.82;;;;;;;;;;5004729;28;20049;-75
2022/10/24 09:36:19;;;;;;;9.13;7.97;;;;;;;;;;5004652;28;20058;-75
2022/10/24 09:38:45;;;;;;;11.38;8.38;;;;;;;;;;5005250;28;20034;-75
2022/10/24 09:41:32;;;;;;;15.70;8.35;;;;;;;;;;5005414;28;20518;-75
2022/10/24 09:43:59;;;;;;;21.58;10.40;;;;;;;;;;5006915;28;20041;-75
2022/10/24 09:46:28;;;;;;;12.25;11.02;;;;;;;;;;5005079;28;20033;-75
2022/10/24 09:49:00;;;;;;;15.38;11.18;;;;;;;;;;5003338;28;20035;-74
2022/10/24 09:51:37;;;;;;;14.32;8.65;;;;;;;;;;5007363;28;20032;-75
2022/10/24 09:54:08;;;;;;;10.05;9.27;;;;;;;;;;5004062;28;20029;-76
2022/10/24 09:56:37;;;;;;;10.25;9.30;;;;;;;;;;5002840;28;20454;-75
2022/10/24 09:59:18;;;;;;;12.23;9.35;;;;;;;;;;5009065;28;20052;-73
2022/10/24 10:01:44;;;;;;;13.10;9.55;;;;;;;;;;5011778;28;20068;-73
2022/10/24 10:04:16;;;;;;;10.88;9.85;;;;;;;;;;5009733;28;20037;-73
2022/10/24 10:06:49;;;;;;;15.30;10.13;;;;;;;;;;5010842;28;20041;-73
2022/10/24 10:09:24;;;;;;;11.68;10.43;;;;;;;;;;5012617;28;20237;-73
2022/10/24 10:11:57;;;;;;;10.93;9.32;;;;;;;;;;5011770;28;20076;-73
2022/10/24 10:14:28;;;;;;;14.82;10.00;;;;;;;;;;5010040;28;20092;-73
2022/10/24 10:17:20;;;;;;;9.85;8.75;;;;;;;;;;5010417;28;20057;-73
2022/10/24 10:19:47;;;;;;;12.27;8.90;;;;;;;;;;5012183;28;20112;-73
2022/10/24 10:22:30;;;;;;;9.85;8.82;;;;;;;;;;5007846;28;20053;-73
2022/10/24 10:24:58;;;;;;;13.35;9.15;;;;;;;;;;5011158;28;20065;-73
2022/10/24 10:27:35;;;;;;;11.20;8.43;;;;;;;;;;5011714;28;20552;-73
2022/10/24 10:30:16;;;;;;;9.98;7.65;;;;;;;;;;5006917;28;20473;-74
2022/10/24 10:33:06;;;;;;;9.05;7.95;;;;;;;;;;5010852;28;20121;-73
2022/10/24 10:35:38;;;;;;;7.78;6.93;;;;;;;;;;5009890;28;20042;-74
2022/10/24 10:38:49;;;;;;;10.18;7.07;;;;;;;;;;5006404;28;20044;-73
2022/10/24 10:41:24;;;;;;;8.88;7.55;;;;;;;;;;5005328;28;20042;-73
2022/10/24 10:44:06;;;;;;;10.65;7.15;;;;;;;;;;5010073;28;20161;-74
2022/10/24 10:47:17;;;;;;;11.23;7.85;;;;;;;;;;5008627;28;20057;-73
2022/10/24 10:49:47;;;;;;;10.38;8.10;;;;;;;;;;4967604;28;20473;-74
2022/10/24 10:52:23;;;;;;;9.07;8.20;;;;;;;;;;4967060;28;20045;-74
2022/10/24 10:54:58;;;;;;;12.75;8.38;;;;;;;;;;4966911;28;20054;-73
2022/10/24 10:57:33;;;;;;;8.80;8.10;;;;;;;;;;4967244;28;20082;-73
2022/10/24 11:00:06;;;;;;;8.25;7.65;;;;;;;;;;4967239;28;20520;-72
2022/10/24 11:02:56;;;;;;;9.75;8.68;;;;;;;;;;4966705;28;20149;-73
2022/10/24 11:06:06;;;;;;;8.82;8.10;;;;;;;;;;4966125;28;20041;-73
2022/10/24 11:09:04;;;;;;;9.50;8.60;;;;;;;;;;4961388;28;20047;-73
2022/10/24 11:11:33;;;;;;;9.85;8.57;;;;;;;;;;4951529;28;20586;-74
2022/10/24 11:13:59;;;;;;;;;;;;;;;;;;4967965;28;20324;-74
2022/10/24 11:16:27;;;;;;;10.43;7.90;;;;;;;;;;4967724;28;19918;-74
2022/10/24 11:18:58;;;;;;;15.13;8.20;;;;;;;;;;4967012;28;20047;-74
2022/10/24 11:21:28;;;;;;;8.68;8.07;;;;;;;;;;4967167;28;20035;-74
2022/10/24 11:24:03;;;;;;;8.70;8.00;;;;;;;;;;4950419;28;20081;-73
2022/10/24 11:26:44;;;;;;;8.80;8.10;;;;;;;;;;4989585;28;20066;-73
2022/10/24 11:29:37;;;;;;;9.13;8.18;;;;;;;;;;5009359;28;20048;-74
2022/10/24 11:32:17;;;;;;;8.98;7.97;;;;;;;;;;5009466;28;20631;-73
2022/10/24 11:35:12;;;;;;;8.90;8.10;;;;;;;;;;5005714;28;20045;-74
2022/10/24 11:37:42;;;;;;;8.45;7.85;;;;;;;;;;5004079;28;20036;-72
2022/10/24 11:40:18;;;;;;;7.93;7.43;;;;;;;;;;5008129;28;20045;-73
2022/10/24 11:43:18;;;;;;;8.13;7.50;;;;;;;;;;5008421;28;20069;-73
2022/10/24 11:46:00;;;;;;;8.75;8.07;;;;;;;;;;5004569;28;20128;-73
2022/10/24 11:48:52;;;;;;;7.75;7.30;;;;;;;;;;5006074;28;20038;-73
2022/10/24 11:51:30;;;;;;;8.30;7.70;;;;;;;;;;5006379;28;20042;-73
2022/10/24 11:53:58;;;;;;;8.13;7.53;;;;;;;;;;5005602;28;20069;-74
2022/10/24 11:56:39;;;;;;;7.82;7.32;;;;;;;;;;5007736;28;20049;-73
2022/10/24 11:59:11;;;;;;;7.82;7.32;;;;;;;;;;5004532;28;20069;-73
2022/10/24 12:01:55;;;;;;;9.00;8.35;;;;;;;;;;5009039;28;20034;-72
2022/10/24 12:04:51;;;;;;;8.45;7.95;;;;;;;;;;5004885;28;20505;-74
2022/10/24 12:07:52;;;;;;;8.55;7.70;;;;;;;;;;5004986;28;20050;-74
2022/10/24 12:11:05;;;;;;;8.45;7.75;;;;;;;;;;4939091;28;20045;-74
2022/10/24 12:13:44;;;;;;;8.30;7.60;;;;;;;;;;4954602;28;20155;-74
2022/10/24 12:16:26;;;;;;;7.93;7.32;;;;;;;;;;4960922;28;20054;-74
2022/10/24 12:18:58;;;;;;;8.27;7.68;;;;;;;;;;4955280;28;20082;-74
2022/10/24 12:21:27;;;;;;;7.72;7.13;;;;;;;;;;4957327;28;20121;-74
2022/10/24 12:23:58;;;;;;;8.27;7.70;;;;;;;;;;4926499;29;20039;-74
2022/10/24 12:26:34;;;;;;;10.05;7.93;;;;;;;;;;4927556;29;20046;-74
2022/10/24 12:29:19;;;;;;;7.78;7.15;;;;;;;;;;4925928;29;20051;-74
2022/10/24 12:31:45;;;;;;;7.70;7.20;;;;;;;;;;4908801;29;20217;-74
2022/10/24 12:34:14;;;;;;;7.95;7.45;;;;;;;;;;4928281;29;20562;-73
2022/10/24 12:37:10;;;;;;;8.18;7.57;;;;;;;;;;4931364;29;20043;-74
2022/10/24 12:39:47;;;;;;;8.60;8.00;;;;;;;;;;4914918;29;20706;-74
2022/10/24 12:42:18;;;;;;;8.10;7.60;;;;;;;;;;4928335;29;20526;-74
2022/10/24 12:44:45;;;;;;;9.00;8.32;;;;;;;;;;4931851;29;20562;-74
2022/10/24 12:47:26;;;;;;;8.57;7.75;;;;;;;;;;4965977;28;20112;-74
2022/10/24 12:49:52;;;;;;;8.20;7.55;;;;;;;;;;5010027;28;20076;-73
2022/10/24 12:52:30;;;;;;;8.52;7.93;;;;;;;;;;5011230;28;20065;-73
2022/10/24 12:54:56;;;;;;;8.07;7.57;;;;;;;;;;5008388;28;20042;-73
2022/10/24 12:57:30;;;;;;;8.88;8.02;;;;;;;;;;5011238;28;20041;-73
2022/10/24 12:59:59;;;;;;;8.50;7.72;;;;;;;;;;5008062;28;20108;-73
2022/10/24 13:02:30;;;;;;;8.33;7.73;;;;;;;;;;5009749;28;21378;-73
2022/10/24 13:05:33;;;;;;;8.35;7.78;;;;;;;;;;5009837;28;20390;-73
2022/10/24 13:08:07;;;;;;;8.57;8.07;;;;;;;;;;4994036;28;20141;-73
2022/10/24 13:10:56;;;;;;;8.05;7.50;;;;;;;;;;5010340;28;20045;-73
2022/10/24 13:13:27;;;;;;;8.38;7.72;;;;;;;;;;5001357;28;20037;-73
2022/10/24 13:15:53;;;;;;;8.48;7.97;;;;;;;;;;5010209;28;20041;-73
2022/10/24 13:18:41;;;;;;;8.93;8.20;;;;;;;;;;5007394;28;20558;-73
2022/10/24 13:21:20;;;;;;;8.25;7.60;;;;;;;;;;5009151;28;20041;-73
2022/10/24 13:23:47;;;;;;;7.90;7.40;;;;;;;;;;5008260;28;20046;-73
2022/10/24 13:26:32;;;;;;;8.88;8.18;;;;;;;;;;5008016;28;20037;-73
2022/10/24 13:28:57;;;;;;;9.32;8.50;;;;;;;;;;5009137;28;20033;-72
2022/10/24 13:31:23;;;;;;;9.60;7.93;;;;;;;;;;5009553;28;20030;-73
2022/10/24 13:33:49;;;;;;;8.15;7.30;;;;;;;;;;5006069;28;20042;-73
2022/10/24 13:36:19;;;;;;;8.55;7.82;;;;;;;;;;5007458;28;20040;-73
2022/10/24 13:39:01;;;;;;;7.60;7.20;;;;;;;;;;5008816;28;20048;-72
2022/10/24 13:41:35;;;;;;;8.25;7.55;;;;;;;;;;5007279;28;20100;-73
2022/10/24 13:44:20;;;;;;;8.07;7.60;;;;;;;;;;5003982;28;20037;-73
2022/10/24 13:46:54;;;;;;;8.38;7.80;;;;;;;;;;5006928;28;20116;-73
2022/10/24 13:49:46;;;;;;;8.32;7.72;;;;;;;;;;5008551;28;20548;-72
2022/10/24 13:52:34;;;;;;;8.15;7.47;;;;;;;;;;5006270;28;20030;-73
2022/10/24 13:55:09;;;;;;;8.00;7.50;;;;;;;;;;5003353;28;20061;-72
2022/10/24 13:58:04;;;;;;;8.27;7.57;;;;;;;;;;5008435;28;20029;-72
2022/10/24 14:00:34;;;;;;;7.60;7.10;;;;;;;;;;5007607;28;20041;-72
2022/10/24 14:03:03;;;;;;;8.63;7.95;;;;;;;;;;5007278;28;20022;-72
2022/10/24 14:05:38;;;;;;;8.13;7.53;;;;;;;;;;5008504;28;20091;-72
2022/10/24 14:08:06;;;;;;;8.60;7.97;;;;;;;;;;5009721;28;20108;-73
2022/10/24 14:10:32;;;;;;;7.97;7.40;;;;;;;;;;5006684;28;21452;-72
2022/10/24 14:12:59;;;;;;;8.32;7.80;;;;;;;;;;5009265;28;20037;-73
2022/10/24 14:15:28;;;;;;;8.77;8.15;;;;;;;;;;5008127;28;20033;-72
2022/10/24 14:18:13;;;;;;;9.27;8.30;;;;;;;;;;5008351;28;20030;-73
2022/10/24 14:20:39;;;;;;;8.32;7.75;;;;;;;;;;5008976;28;20163;-73
2022/10/24 14:23:36;;;;;;;8.50;7.70;;;;;;;;;;5008932;28;20034;-73
2022/10/24 14:26:08;;;;;;;8.20;7.60;;;;;;;;;;5002521;28;20046;-72
2022/10/24 14:28:36;;;;;;;8.55;7.95;;;;;;;;;;5005002;28;20154;-72
2022/10/24 14:31:05;;;;;;;8.98;8.10;;;;;;;;;;5006266;28;20052;-72
2022/10/24 14:33:41;;;;;;;7.90;7.40;;;;;;;;;;5005588;28;20053;-73
2022/10/24 14:36:07;;;;;;;8.18;7.53;;;;;;;;;;5002934;28;20528;-72
2022/10/24 14:38:33;;;;;;;9.63;8.90;;;;;;;;;;5006592;28;20121;-73
2022/10/24 14:41:00;;;;;;;7.93;7.43;;;;;;;;;;5004825;28;20559;-73
2022/10/24 14:43:28;;;;;;;8.25;7.60;;;;;;;;;;5002572;28;20146;-72
2022/10/24 14:46:35;;;;;;;8.50;7.90;;;;;;;;;;5004356;28;20048;-72
2022/10/24 14:49:25;;;;;;;8.40;7.80;;;;;;;;;;4975681;28;20264;-73
2022/10/24 14:51:53;;;;;;;8.15;7.45;;;;;;;;;;4976031;28;20045;-72
2022/10/24 14:54:21;;;;;;;8.20;7.70;;;;;;;;;;4975514;28;20395;-73
2022/10/24 14:56:48;;;;;;;9.02;7.82;;;;;;;;;;4963096;28;20069;-72
2022/10/24 14:59:28;;;;;;;7.90;7.43;;;;;;;;;;4973738;28;20292;-73
2022/10/24 15:02:00;;;;;;;8.30;7.60;;;;;;;;;;4970305;28;20231;-73